createdAt,value
2019-02-24T00:01:09.922Z,12.70
2019-02-24T00:03:39.127Z,12.35
2019-02-24T00:06:08.360Z,12.68
2019-02-24T00:08:37.568Z,11.28
2019-02-24T00:11:06.791Z,12.63
2019-02-24T00:13:36.002Z,11.78
2019-02-24T00:16:05.216Z,11.93
2019-02-24T00:18:34.514Z,12.23
2019-02-24T00:21:03.732Z,11.73
2019-02-24T00:23:32.955Z,11.07
2019-02-24T00:26:04.702Z,11.10
2019-02-24T00:28:34.041Z,11.70
2019-02-24T00:31:03.335Z,10.10
2019-02-24T00:33:35.547Z,10.87
2019-02-24T00:36:04.753Z,11.27
2019-02-24T00:38:34.047Z,10.78
2019-02-24T00:41:03.282Z,10.83
2019-02-24T00:43:32.484Z,11.13
2019-02-24T00:46:01.710Z,10.08
2019-02-24T00:48:30.895Z,9.97
2019-02-24T00:51:00.061Z,10.80
2019-02-24T00:53:29.283Z,10.60
2019-02-24T00:55:58.504Z,10.00
2019-02-24T00:58:27.678Z,10.77
2019-02-24T01:00:56.988Z,10.43
2019-02-24T01:03:26.283Z,10.30
2019-02-24T01:05:55.528Z,10.33
2019-02-24T01:08:24.747Z,10.60
2019-02-24T01:10:54.003Z,10.50
2019-02-24T01:13:23.210Z,9.93
2019-02-24T01:15:52.387Z,9.83
2019-02-24T01:18:21.547Z,9.00
2019-02-24T01:20:50.735Z,9.43
2019-02-24T01:23:19.895Z,9.77
2019-02-24T01:25:49.073Z,9.77
2019-02-24T01:28:25.009Z,10.10
2019-02-24T01:30:49.193Z,9.60
2019-02-24T01:33:18.366Z,10.03
2019-02-24T01:35:47.551Z,9.53
2019-02-24T01:38:16.741Z,8.77
2019-02-24T01:40:45.918Z,9.87
2019-02-24T01:43:15.107Z,9.47
2019-02-24T01:45:44.271Z,8.17
2019-02-24T01:48:13.467Z,9.80
2019-02-24T01:50:42.631Z,9.43
2019-02-24T01:53:11.811Z,8.50
2019-02-24T01:55:40.991Z,8.57
2019-02-24T01:58:10.247Z,9.20
2019-02-24T02:00:39.426Z,8.63
2019-02-24T02:03:08.611Z,8.87
2019-02-24T02:05:37.787Z,8.63
2019-02-24T02:08:06.959Z,8.23
2019-02-24T02:10:37.103Z,8.13
2019-02-24T02:13:06.349Z,8.50
2019-02-24T02:15:35.515Z,8.43
2019-02-24T02:18:04.694Z,8.07
2019-02-24T02:20:33.889Z,8.63
2019-02-24T02:23:03.067Z,8.50
2019-02-24T02:25:32.243Z,8.00
2019-02-24T02:28:01.431Z,8.50
2019-02-24T02:30:30.609Z,8.20
2019-02-24T02:32:59.855Z,7.73
2019-02-24T02:35:29.040Z,8.00
2019-02-24T02:38:02.996Z,8.30
2019-02-24T02:40:33.214Z,8.17
2019-02-24T02:43:03.050Z,8.30
2019-02-24T02:45:32.251Z,7.77
2019-02-24T02:48:01.443Z,8.50
2019-02-24T02:50:30.779Z,7.60
2019-02-24T02:52:59.960Z,8.33
2019-02-24T02:55:30.498Z,8.10
2019-02-24T02:57:59.688Z,8.20
2019-02-24T03:00:33.761Z,7.63
2019-02-24T03:03:03.032Z,8.10
2019-02-24T03:05:32.216Z,7.33
2019-02-24T03:08:03.075Z,7.43
2019-02-24T03:10:32.255Z,8.00
2019-02-24T03:13:01.475Z,8.03
2019-02-24T03:15:30.658Z,7.63
2019-02-24T03:17:59.899Z,7.17
2019-02-24T03:20:29.147Z,8.23
2019-02-24T03:22:58.409Z,7.70
2019-02-24T03:25:27.667Z,8.00
2019-02-24T03:27:56.838Z,7.10
2019-02-24T03:30:26.000Z,7.43
2019-02-24T03:32:55.200Z,7.33
2019-02-24T03:35:24.528Z,7.63
2019-02-24T03:37:53.721Z,7.27
2019-02-24T03:40:22.923Z,7.10
2019-02-24T03:42:54.234Z,7.80
2019-02-24T03:45:23.493Z,8.30
2019-02-24T03:47:52.735Z,7.13
2019-02-24T03:50:21.898Z,8.30
2019-02-24T03:52:51.090Z,8.67
2019-02-24T03:55:20.277Z,8.63
2019-02-24T03:57:49.441Z,7.47
2019-02-24T04:00:18.716Z,7.60
2019-02-24T04:02:47.932Z,7.83
2019-02-24T04:05:17.569Z,7.43
2019-02-24T04:07:46.742Z,8.13
2019-02-24T04:10:15.963Z,7.50
2019-02-24T04:12:45.149Z,7.97
2019-02-24T04:15:14.390Z,7.37
2019-02-24T04:17:43.567Z,7.67
2019-02-24T04:20:12.743Z,7.67
2019-02-24T04:22:41.913Z,7.80
2019-02-24T04:25:11.088Z,7.00
2019-02-24T04:27:40.247Z,7.50
2019-02-24T04:30:09.428Z,8.47
2019-02-24T04:32:38.662Z,7.20
2019-02-24T04:35:07.841Z,7.93
2019-02-24T04:37:37.007Z,7.47
2019-02-24T04:40:07.631Z,7.50
2019-02-24T04:42:36.849Z,7.27
2019-02-24T04:45:06.830Z,7.40
2019-02-24T04:47:35.999Z,6.60
2019-02-24T04:50:05.759Z,8.43
2019-02-24T04:52:34.911Z,8.10
2019-02-24T04:55:04.758Z,7.83
2019-02-24T04:57:35.010Z,7.50
2019-02-24T05:00:06.363Z,7.63
2019-02-24T05:02:35.562Z,7.63
2019-02-24T05:05:05.888Z,7.20
2019-02-24T05:07:35.114Z,7.50
2019-02-24T05:10:06.126Z,7.57
2019-02-24T05:12:35.277Z,7.30
2019-02-24T05:15:05.936Z,7.60
2019-02-24T05:17:36.301Z,7.20
2019-02-24T05:20:07.706Z,7.13
2019-02-24T05:22:36.862Z,7.33
2019-02-24T05:25:06.283Z,8.43
2019-02-24T05:27:35.446Z,7.17
2019-02-24T05:30:06.747Z,7.80
2019-02-24T05:32:35.927Z,7.60
2019-02-24T05:35:05.464Z,7.47
2019-02-24T05:37:35.605Z,7.57
2019-02-24T05:40:05.736Z,7.20
2019-02-24T05:42:34.910Z,8.63
2019-02-24T05:45:05.685Z,7.37
2019-02-24T05:48:02.780Z,7.60
2019-02-24T05:50:32.033Z,7.27
2019-02-24T05:53:01.308Z,7.10
2019-02-24T05:55:30.587Z,6.80
2019-02-24T05:57:59.822Z,7.20
2019-02-24T06:00:28.980Z,7.47
2019-02-24T06:02:58.159Z,7.63
2019-02-24T06:05:27.394Z,7.57
2019-02-24T06:07:56.587Z,7.17
2019-02-24T06:10:25.755Z,7.37
2019-02-24T06:12:55.078Z,7.17
2019-02-24T06:15:24.260Z,7.30
2019-02-24T06:17:53.431Z,7.57
2019-02-24T06:20:22.673Z,6.43
2019-02-24T06:22:51.918Z,7.13
2019-02-24T06:25:21.102Z,7.60
2019-02-24T06:27:50.411Z,7.60
2019-02-24T06:30:19.580Z,6.67
2019-02-24T06:32:48.814Z,7.63
2019-02-24T06:35:18.003Z,7.43
2019-02-24T06:37:47.200Z,7.47
2019-02-24T06:40:16.354Z,8.17
2019-02-24T06:42:45.530Z,7.30
2019-02-24T06:45:14.691Z,6.90
2019-02-24T06:47:43.863Z,7.10
2019-02-24T06:50:13.055Z,7.27
2019-02-24T06:52:42.246Z,6.93
2019-02-24T06:55:11.483Z,6.43
2019-02-24T06:57:40.658Z,7.23
2019-02-24T07:00:14.235Z,7.00
2019-02-24T07:02:43.135Z,6.97
2019-02-24T07:05:12.303Z,7.30
2019-02-24T07:07:41.484Z,7.80
2019-02-24T07:10:10.727Z,7.73
2019-02-24T07:12:40.095Z,7.53
2019-02-24T07:15:09.510Z,7.30
2019-02-24T07:17:38.697Z,7.73
2019-02-24T07:20:08.019Z,7.33
2019-02-24T07:22:37.274Z,7.57
2019-02-24T07:25:06.650Z,7.97
2019-02-24T07:27:36.936Z,7.60
2019-02-24T07:30:08.940Z,7.47
2019-02-24T07:32:38.106Z,8.33
2019-02-24T07:35:08.330Z,9.03
2019-02-24T07:37:37.515Z,8.77
2019-02-24T07:40:06.741Z,8.90
2019-02-24T07:42:36.171Z,9.07
2019-02-24T07:45:07.378Z,9.50
2019-02-24T07:47:36.703Z,9.63
2019-02-24T07:50:08.939Z,7.90
2019-02-24T07:52:38.122Z,7.83
2019-02-24T07:55:07.296Z,8.73
2019-02-24T07:57:36.466Z,9.07
2019-02-24T08:00:09.012Z,8.20
2019-02-24T08:02:38.191Z,9.37
2019-02-24T08:05:08.020Z,8.60
2019-02-24T08:07:37.196Z,8.80
2019-02-24T08:10:07.607Z,7.97
2019-02-24T08:12:36.844Z,8.47
2019-02-24T08:15:07.980Z,8.17
2019-02-24T08:17:37.159Z,7.57
2019-02-24T08:20:08.695Z,7.07
2019-02-24T08:22:37.997Z,8.10
2019-02-24T08:25:08.824Z,8.63
2019-02-24T08:27:39.188Z,7.90
2019-02-24T08:30:11.695Z,8.57
2019-02-24T08:32:40.939Z,8.20
2019-02-24T08:35:10.203Z,8.17
2019-02-24T08:37:39.522Z,8.90
2019-02-24T08:40:08.898Z,8.33
2019-02-24T08:42:38.101Z,7.80
2019-02-24T08:45:09.448Z,8.43
2019-02-24T08:48:03.089Z,8.20
2019-02-24T08:50:32.303Z,9.25
2019-02-24T08:53:01.590Z,7.85
2019-02-24T08:55:30.816Z,6.78
2019-02-24T08:58:00.218Z,8.88
2019-02-24T09:00:29.565Z,8.18
2019-02-24T09:02:58.840Z,8.03
2019-02-24T09:05:28.054Z,7.97
2019-02-24T09:07:57.538Z,8.10
2019-02-24T09:10:27.531Z,7.45
2019-02-24T09:12:56.746Z,7.25
2019-02-24T09:15:26.044Z,6.22
2019-02-24T09:17:55.324Z,7.47
2019-02-24T09:20:24.677Z,6.12
2019-02-24T09:22:53.887Z,7.65
2019-02-24T09:25:23.098Z,7.00
2019-02-24T09:27:53.422Z,7.42
2019-02-24T09:30:22.642Z,6.85
2019-02-24T09:32:51.845Z,6.80
2019-02-24T09:35:21.046Z,6.65
2019-02-24T09:37:50.348Z,6.67
2019-02-24T09:40:19.554Z,6.55
2019-02-24T09:42:48.831Z,5.60
2019-02-24T09:45:45.216Z,6.78
2019-02-24T09:48:14.431Z,7.17
2019-02-24T09:50:43.833Z,6.25
2019-02-24T09:53:13.031Z,6.33
2019-02-24T09:56:01.672Z,6.40
2019-02-24T09:58:30.889Z,6.17
2019-02-24T10:01:00.151Z,6.95
2019-02-24T10:03:29.371Z,6.83
2019-02-24T10:05:58.576Z,6.25
2019-02-24T10:08:27.779Z,6.25
2019-02-24T10:11:16.395Z,9.35
2019-02-24T10:13:45.615Z,5.70
2019-02-24T10:16:14.813Z,6.22
2019-02-24T10:18:44.088Z,6.37
2019-02-24T10:21:13.414Z,6.45
2019-02-24T10:23:42.643Z,5.97
2019-02-24T10:26:13.019Z,5.47
2019-02-24T10:28:42.298Z,5.95
2019-02-24T10:31:19.590Z,5.12
2019-02-24T10:33:42.503Z,5.33
2019-02-24T10:36:11.706Z,5.35
2019-02-24T10:38:41.032Z,4.80
2019-02-24T10:41:10.331Z,4.62
2019-02-24T10:43:39.562Z,5.33
2019-02-24T10:46:08.755Z,4.90
2019-02-24T10:48:37.964Z,5.33
2019-02-24T10:51:07.154Z,4.53
2019-02-24T10:53:36.382Z,4.05
2019-02-24T10:56:05.660Z,4.10
2019-02-24T10:58:35.168Z,4.40
2019-02-24T11:01:04.455Z,4.17
2019-02-24T11:03:33.763Z,3.92
2019-02-24T11:06:03.035Z,3.80
2019-02-24T11:08:32.245Z,3.70
2019-02-24T11:11:01.504Z,3.58
2019-02-24T11:13:30.712Z,3.45
2019-02-24T11:16:00.995Z,3.35
2019-02-24T11:18:30.216Z,3.00
2019-02-24T11:21:13.593Z,3.27
2019-02-24T11:23:42.792Z,3.12
2019-02-24T11:26:11.997Z,3.47
2019-02-24T11:28:41.211Z,2.87
2019-02-24T11:31:10.422Z,3.42
2019-02-24T11:33:39.634Z,2.77
2019-02-24T11:36:08.916Z,2.65
2019-02-24T11:38:38.141Z,2.67
2019-02-24T11:41:07.549Z,2.60
2019-02-24T11:43:36.947Z,3.02
2019-02-24T11:46:06.159Z,2.45
2019-02-24T11:48:35.543Z,3.10
2019-02-24T11:51:04.759Z,2.98
2019-02-24T11:53:34.882Z,2.85
2019-02-24T11:56:04.238Z,3.60
2019-02-24T11:58:33.427Z,2.62
2019-02-24T12:01:02.712Z,2.35
2019-02-24T12:03:32.904Z,2.80
2019-02-24T12:06:02.104Z,2.90
2019-02-24T12:08:34.091Z,2.75
2019-02-24T12:11:03.285Z,2.30
2019-02-24T12:13:32.578Z,2.47
2019-02-24T12:16:01.948Z,2.60
2019-02-24T12:18:31.210Z,2.50
2019-02-24T12:21:00.596Z,2.05
2019-02-24T12:23:29.869Z,1.72
2019-02-24T12:25:59.094Z,2.15
2019-02-24T12:28:28.387Z,2.45
2019-02-24T12:30:57.672Z,2.92
2019-02-24T12:33:26.890Z,3.17
2019-02-24T12:35:56.250Z,3.52
2019-02-24T12:38:25.489Z,3.35
2019-02-24T12:40:54.692Z,2.95
2019-02-24T12:43:23.986Z,2.80
2019-02-24T12:45:53.183Z,3.90
2019-02-24T12:48:22.395Z,4.17
2019-02-24T12:50:51.591Z,3.85
2019-02-24T12:53:21.950Z,3.90
2019-02-24T12:55:51.144Z,3.83
2019-02-24T12:58:20.346Z,4.22
2019-02-24T13:00:49.535Z,4.10
2019-02-24T13:03:23.989Z,3.90
2019-02-24T13:05:49.734Z,3.87
2019-02-24T13:08:32.909Z,4.15
2019-02-24T13:11:02.126Z,4.85
2019-02-24T13:13:45.535Z,4.50
2019-02-24T13:16:14.722Z,4.30
2019-02-24T13:18:43.927Z,4.42
2019-02-24T13:21:13.134Z,4.22
2019-02-24T13:23:42.327Z,4.65
2019-02-24T13:26:11.550Z,4.35
2019-02-24T13:28:50.170Z,4.08
2019-02-24T13:31:11.794Z,4.10
2019-02-24T13:33:41.034Z,4.37
2019-02-24T13:36:10.452Z,4.12
2019-02-24T13:38:39.658Z,4.08
2019-02-24T13:41:08.846Z,3.50
2019-02-24T13:43:38.092Z,3.90
2019-02-24T13:46:07.348Z,3.92
2019-02-24T13:48:36.565Z,4.33
2019-02-24T13:51:05.829Z,4.37
2019-02-24T13:53:35.123Z,4.83
2019-02-24T13:56:05.250Z,3.92
2019-02-24T13:58:34.509Z,3.52
2019-02-24T14:01:03.719Z,4.08
2019-02-24T14:03:33.036Z,4.15
2019-02-24T14:06:03.942Z,4.03
2019-02-24T14:08:34.380Z,3.92
2019-02-24T14:11:03.673Z,3.45
2019-02-24T14:13:33.101Z,3.75
2019-02-24T14:16:03.535Z,3.55
2019-02-24T14:18:32.823Z,3.52
2019-02-24T14:21:02.033Z,3.83
2019-02-24T14:23:31.301Z,3.20
2019-02-24T14:26:00.515Z,4.47
2019-02-24T14:28:29.703Z,3.45
2019-02-24T14:30:58.915Z,3.42
2019-02-24T14:33:28.107Z,3.33
2019-02-24T14:35:57.335Z,3.83
2019-02-24T14:38:26.606Z,3.08
2019-02-24T14:40:55.835Z,3.47
2019-02-24T14:43:25.026Z,3.10
2019-02-24T14:45:54.239Z,3.10
2019-02-24T14:48:23.452Z,3.05
2019-02-24T14:50:52.741Z,3.17
2019-02-24T14:53:21.934Z,2.67
2019-02-24T14:55:52.517Z,3.22
2019-02-24T14:58:21.774Z,3.22
2019-02-24T15:00:51.026Z,2.95
2019-02-24T15:03:20.234Z,2.92
2019-02-24T15:05:50.514Z,3.52
2019-02-24T15:08:19.767Z,3.12
2019-02-24T15:10:48.976Z,2.58
2019-02-24T15:13:18.359Z,2.87
2019-02-24T15:15:47.579Z,3.33
2019-02-24T15:18:16.766Z,2.85
2019-02-24T15:20:46.972Z,3.33
2019-02-24T15:23:16.261Z,2.90
2019-02-24T15:25:45.723Z,3.27
2019-02-24T15:28:14.938Z,3.17
2019-02-24T15:30:44.127Z,3.12
2019-02-24T15:33:13.368Z,3.00
2019-02-24T15:35:43.760Z,3.58
2019-02-24T15:38:12.963Z,2.90
2019-02-24T15:40:42.162Z,2.92
2019-02-24T15:43:13.161Z,3.35
2019-02-24T15:45:42.379Z,3.17
2019-02-24T15:48:11.582Z,3.72
2019-02-24T15:50:40.859Z,3.08
2019-02-24T15:53:10.063Z,3.25
2019-02-24T15:55:39.451Z,8.10
2019-02-24T15:58:08.721Z,6.53
2019-02-24T16:00:37.933Z,9.18
2019-02-24T16:03:07.226Z,14.28
2019-02-24T16:05:36.458Z,16.55
2019-02-24T16:08:05.694Z,15.80
2019-02-24T16:10:34.903Z,15.72
2019-02-24T16:13:04.115Z,151.85
2019-02-24T16:15:33.363Z,133.15
2019-02-24T16:18:02.655Z,176.47
2019-02-24T16:20:34.726Z,152.55
2019-02-24T16:23:04.025Z,96.42
2019-02-24T16:25:33.352Z,94.87
2019-02-24T16:28:02.565Z,88.17
2019-02-24T16:30:31.887Z,42.20
2019-02-24T16:33:09.960Z,48.60
2019-02-24T16:35:33.769Z,38.20
2019-02-24T16:38:17.380Z,49.08
2019-02-24T16:40:46.683Z,28.47
2019-02-24T16:43:16.003Z,23.05
2019-02-24T16:45:45.296Z,27.90
2019-02-24T16:48:14.665Z,21.17
2019-02-24T16:50:43.926Z,17.15
2019-02-24T16:53:13.158Z,16.12
2019-02-24T16:55:42.380Z,15.32
2019-02-24T16:58:12.230Z,15.03
2019-02-24T17:00:41.515Z,11.68
2019-02-24T17:03:19.472Z,9.83
2019-02-24T17:05:41.829Z,10.13
2019-02-24T17:08:11.087Z,9.48
2019-02-24T17:10:40.518Z,9.25
2019-02-24T17:13:09.835Z,7.00
2019-02-24T17:15:39.044Z,6.12
2019-02-24T17:18:08.275Z,6.62
2019-02-24T17:20:37.493Z,6.10
2019-02-24T17:23:06.798Z,5.90
2019-02-24T17:25:36.013Z,4.80
2019-02-24T17:28:05.236Z,5.65
2019-02-24T17:30:34.515Z,6.37
2019-02-24T17:33:03.726Z,6.65
2019-02-24T17:35:32.949Z,6.87
2019-02-24T17:38:02.208Z,6.42
2019-02-24T17:40:31.594Z,5.20
2019-02-24T17:43:00.791Z,6.53
2019-02-24T17:45:30.026Z,6.15
2019-02-24T17:47:59.624Z,5.58
2019-02-24T17:50:28.901Z,5.42
2019-02-24T17:52:58.405Z,5.97
2019-02-24T17:55:27.714Z,6.40
2019-02-24T17:57:57.026Z,7.72
2019-02-24T18:00:29.049Z,10.03
2019-02-24T18:02:59.338Z,10.70
2019-02-24T18:05:28.642Z,11.50
2019-02-24T18:07:57.852Z,10.58
2019-02-24T18:10:27.068Z,10.58
2019-02-24T18:12:56.292Z,11.65
2019-02-24T18:15:25.594Z,9.63
2019-02-24T18:17:54.791Z,10.10
2019-02-24T18:20:24.036Z,10.48
2019-02-24T18:22:53.233Z,9.80
2019-02-24T18:25:22.529Z,11.33
2019-02-24T18:27:51.836Z,10.90
2019-02-24T18:30:24.055Z,9.28
2019-02-24T18:32:53.403Z,8.75
2019-02-24T18:35:22.758Z,8.20
2019-02-24T18:37:52.961Z,8.38
2019-02-24T18:40:22.187Z,7.97
2019-02-24T18:42:59.886Z,8.13
2019-02-24T18:45:22.501Z,8.00
2019-02-24T18:47:51.748Z,7.17
2019-02-24T18:50:40.416Z,7.30
2019-02-24T18:53:09.619Z,7.92
2019-02-24T18:55:38.924Z,6.83
2019-02-24T18:58:08.204Z,8.23
2019-02-24T19:00:37.475Z,8.28
2019-02-24T19:03:21.298Z,7.80
2019-02-24T19:05:50.522Z,6.80
2019-02-24T19:08:19.821Z,7.50
2019-02-24T19:10:49.035Z,8.23
2019-02-24T19:13:18.331Z,8.40
2019-02-24T19:15:47.555Z,7.70
2019-02-24T19:18:16.759Z,8.30
2019-02-24T19:20:45.995Z,7.60
2019-02-24T19:23:15.187Z,6.90
2019-02-24T19:25:44.391Z,7.00
2019-02-24T19:28:13.575Z,7.17
2019-02-24T19:30:56.942Z,7.63
2019-02-24T19:33:26.180Z,7.12
2019-02-24T19:35:55.470Z,8.40
2019-02-24T19:38:24.701Z,7.33
2019-02-24T19:40:54.043Z,6.83
2019-02-24T19:43:23.249Z,7.13
2019-02-24T19:45:52.473Z,6.90
2019-02-24T19:48:21.735Z,7.33
2019-02-24T19:50:50.958Z,7.37
2019-02-24T19:53:22.271Z,7.37
2019-02-24T19:55:51.255Z,7.57
2019-02-24T19:58:20.523Z,8.17
2019-02-24T20:00:49.811Z,7.20
2019-02-24T20:03:19.081Z,7.73
2019-02-24T20:05:48.471Z,9.27
2019-02-24T20:08:17.651Z,7.87
2019-02-24T20:10:46.868Z,7.93
2019-02-24T20:13:16.096Z,8.73
2019-02-24T20:15:45.283Z,7.43
2019-02-24T20:18:14.479Z,8.57
2019-02-24T20:20:43.871Z,8.40
2019-02-24T20:23:13.035Z,9.37
2019-02-24T20:25:42.226Z,7.77
2019-02-24T20:28:11.393Z,8.27
2019-02-24T20:30:40.575Z,8.83
2019-02-24T20:33:10.001Z,8.80
2019-02-24T20:35:39.176Z,8.63
2019-02-24T20:38:08.431Z,8.03
2019-02-24T20:40:37.622Z,8.53
2019-02-24T20:43:06.891Z,8.20
2019-02-24T20:45:36.070Z,7.13
2019-02-24T20:48:05.320Z,7.90
2019-02-24T20:50:35.241Z,8.33
2019-02-24T20:53:04.543Z,7.57
2019-02-24T20:55:33.773Z,7.43
2019-02-24T20:58:02.976Z,7.43
2019-02-24T21:00:44.416Z,6.93
2019-02-24T21:03:13.835Z,7.53
2019-02-24T21:05:43.012Z,8.47
2019-02-24T21:08:12.279Z,7.50
2019-02-24T21:10:41.537Z,8.23
2019-02-24T21:13:10.718Z,8.37
2019-02-24T21:15:39.887Z,8.90
2019-02-24T21:18:09.089Z,10.20
2019-02-24T21:20:38.357Z,10.07
2019-02-24T21:23:07.552Z,9.67
2019-02-24T21:25:37.838Z,9.67
2019-02-24T21:28:07.204Z,8.90
2019-02-24T21:30:37.528Z,9.43
2019-02-24T21:33:06.800Z,9.00
2019-02-24T21:35:36.116Z,10.53
2019-02-24T21:38:05.296Z,8.97
2019-02-24T21:40:36.051Z,9.80
2019-02-24T21:43:05.371Z,8.97
2019-02-24T21:45:34.541Z,9.47
2019-02-24T21:48:03.733Z,9.07
2019-02-24T21:50:32.903Z,8.50
2019-02-24T21:53:02.187Z,8.40
2019-02-24T21:55:31.363Z,8.60
2019-02-24T21:58:00.729Z,9.93
2019-02-24T22:00:29.928Z,9.87
2019-02-24T22:02:59.167Z,8.67
2019-02-24T22:05:28.353Z,9.70
2019-02-24T22:07:57.540Z,10.10
2019-02-24T22:10:26.750Z,9.10
2019-02-24T22:12:55.982Z,9.20
2019-02-24T22:15:26.821Z,10.20
2019-02-24T22:17:56.015Z,8.63
2019-02-24T22:20:25.193Z,8.83
2019-02-24T22:22:54.352Z,8.87
2019-02-24T22:25:23.541Z,9.77
2019-02-24T22:27:52.731Z,9.87
2019-02-24T22:30:23.615Z,8.77
2019-02-24T22:32:52.858Z,8.77
2019-02-24T22:35:23.157Z,8.93
2019-02-24T22:37:52.380Z,8.43
2019-02-24T22:40:21.583Z,8.97
2019-02-24T22:42:51.834Z,9.90
2019-02-24T22:45:21.361Z,7.77
2019-02-24T22:47:50.621Z,8.50
2019-02-24T22:50:19.880Z,8.77
2019-02-24T22:52:49.134Z,8.07
2019-02-24T22:55:19.108Z,8.73
2019-02-24T22:57:48.279Z,8.90
2019-02-24T23:00:52.549Z,9.03
2019-02-24T23:03:26.297Z,8.47
2019-02-24T23:05:55.662Z,8.13
2019-02-24T23:08:24.831Z,8.03
2019-02-24T23:10:54.077Z,7.70
2019-02-24T23:13:23.267Z,8.37
2019-02-24T23:15:52.443Z,8.40
2019-02-24T23:18:22.695Z,8.47
2019-02-24T23:20:51.936Z,8.10
2019-02-24T23:23:21.111Z,8.20
2019-02-24T23:25:50.379Z,8.33
2019-02-24T23:28:19.786Z,8.67
2019-02-24T23:30:48.982Z,8.87
2019-02-24T23:33:18.215Z,8.17
2019-02-24T23:35:47.386Z,8.57
2019-02-24T23:38:16.579Z,9.90
2019-02-24T23:40:46.727Z,8.73
2019-02-24T23:43:16.971Z,7.63
2019-02-24T23:45:46.147Z,7.43
2019-02-24T23:48:15.320Z,8.57
2019-02-24T23:50:45.464Z,8.60
2019-02-24T23:53:14.644Z,7.37
2019-02-24T23:55:43.810Z,8.10
2019-02-24T23:58:13.830Z,7.77
